createdAt,value
2018-06-03T00:01:03.590Z,78.89
2018-06-03T00:03:45.727Z,78.96
2018-06-03T00:06:23.433Z,78.98
2018-06-03T00:08:54.922Z,79.16
2018-06-03T00:11:34.000Z,79.40
2018-06-03T00:14:06.021Z,79.55
2018-06-03T00:16:37.629Z,79.35
2018-06-03T00:19:10.305Z,79.38
2018-06-03T00:21:49.644Z,79.23
2018-06-03T00:24:48.698Z,79.62
2018-06-03T00:27:22.516Z,79.86
2018-06-03T00:29:56.650Z,79.80
2018-06-03T00:32:38.772Z,79.73
2018-06-03T00:35:24.222Z,79.73
2018-06-03T00:37:58.409Z,79.98
2018-06-03T00:40:32.147Z,80.16
2018-06-03T00:43:17.598Z,80.19
2018-06-03T00:48:48.419Z,80.12
2018-06-03T00:51:20.418Z,80.37
2018-06-03T00:53:58.706Z,80.62
2018-06-03T00:56:50.460Z,80.49
2018-06-03T00:59:25.527Z,80.40
2018-06-03T01:02:00.306Z,80.58
2018-06-03T01:04:53.595Z,80.98
2018-06-03T01:14:21.836Z,81.55
2018-06-03T01:17:10.918Z,81.96
2018-06-03T01:26:28.262Z,81.99
2018-06-03T01:44:07.687Z,82.83
2018-06-03T01:50:28.836Z,82.93
2018-06-03T01:53:16.338Z,83.10
2018-06-03T01:56:05.435Z,83.16
2018-06-03T02:39:06.429Z,84.58
2018-06-03T02:41:45.404Z,84.32
2018-06-03T02:44:26.857Z,83.91
2018-06-03T02:47:02.843Z,83.94
2018-06-03T02:49:35.496Z,83.84
2018-06-03T02:52:19.813Z,83.95
2018-06-03T02:57:48.677Z,84.33
2018-06-03T03:20:29.110Z,84.10
2018-06-03T03:26:15.991Z,84.61
2018-06-03T03:28:56.848Z,84.77
2018-06-03T03:31:29.613Z,84.22
2018-06-03T03:34:01.503Z,84.21
2018-06-03T03:36:34.022Z,84.64
2018-06-03T03:39:13.733Z,84.89
2018-06-03T03:41:47.333Z,84.97
2018-06-03T03:44:28.399Z,85.25
2018-06-03T03:47:05.545Z,85.32
2018-06-03T03:49:40.210Z,85.14
2018-06-03T03:52:26.665Z,84.86
2018-06-03T03:55:11.923Z,84.81
2018-06-03T03:57:45.945Z,84.76
2018-06-03T04:11:56.521Z,84.91
2018-06-03T04:14:28.545Z,85.06
2018-06-03T04:17:04.724Z,84.62
2018-06-03T04:19:36.554Z,84.45
2018-06-03T04:22:15.605Z,84.30
2018-06-03T04:24:47.165Z,84.29
2018-06-03T04:27:18.840Z,84.38
2018-06-03T04:29:51.149Z,84.25
2018-06-03T04:32:22.716Z,84.05
2018-06-03T04:35:10.604Z,84.02
2018-06-03T04:37:42.064Z,83.87
2018-06-03T04:40:13.509Z,83.79
2018-06-03T04:42:45.202Z,83.77
2018-06-03T04:45:16.448Z,84.28
2018-06-03T04:47:48.098Z,84.84
2018-06-03T04:50:21.243Z,84.12
2018-06-03T04:52:52.685Z,83.48
2018-06-03T04:55:23.893Z,83.17
2018-06-03T04:57:55.969Z,83.02
2018-06-03T05:00:33.135Z,82.88
2018-06-03T05:03:04.636Z,82.93
2018-06-03T05:05:41.366Z,82.65
2018-06-03T05:08:12.622Z,82.46
2018-06-03T05:10:43.981Z,82.19
2018-06-03T05:22:18.538Z,81.65
2018-06-03T05:24:56.406Z,81.60
2018-06-03T05:27:31.581Z,81.43
2018-06-03T05:30:13.399Z,81.17
2018-06-03T05:32:48.538Z,80.88
2018-06-03T05:35:19.666Z,80.43
2018-06-03T05:38:06.079Z,80.11
2018-06-03T05:40:55.379Z,79.90
2018-06-03T05:43:26.509Z,79.64
2018-06-03T05:46:04.410Z,79.68
2018-06-03T05:48:35.493Z,80.22
2018-06-03T05:51:06.889Z,80.21
2018-06-03T05:53:40.338Z,80.10
2018-06-03T05:56:12.723Z,79.81
2018-06-03T05:58:43.967Z,79.39
2018-06-03T06:01:15.118Z,78.73
2018-06-03T06:03:46.742Z,77.63
2018-06-03T06:06:17.758Z,76.95
2018-06-03T06:08:53.647Z,76.81
2018-06-03T06:11:25.167Z,75.23
2018-06-03T06:13:56.257Z,75.16
2018-06-03T06:16:27.492Z,75.36
2018-06-03T06:18:58.716Z,73.66
2018-06-03T06:21:29.968Z,72.75
2018-06-03T06:24:22.788Z,73.41
2018-06-03T06:26:54.914Z,72.23
2018-06-03T06:29:27.673Z,71.81
2018-06-03T06:34:37.090Z,69.19
2018-06-03T06:37:08.474Z,70.21
2018-06-03T06:39:41.509Z,69.96
2018-06-03T06:42:13.267Z,69.07
2018-06-03T06:45:08.372Z,68.61
2018-06-03T06:47:40.547Z,68.23
2018-06-03T06:53:00.600Z,67.37
2018-06-03T06:55:32.224Z,66.36
2018-06-03T06:58:17.163Z,65.48
2018-06-03T07:00:49.922Z,66.00
2018-06-03T07:03:55.276Z,64.84
2018-06-03T07:06:27.477Z,64.02
2018-06-03T07:08:59.483Z,64.32
2018-06-03T07:11:37.974Z,63.59
2018-06-03T07:14:10.000Z,62.20
2018-06-03T07:16:42.078Z,61.90
2018-06-03T07:19:14.736Z,62.21
2018-06-03T07:21:47.784Z,62.56
2018-06-03T07:24:20.411Z,61.40
2018-06-03T07:27:00.281Z,61.21
2018-06-03T07:29:31.692Z,61.78
2018-06-03T07:32:06.663Z,59.23
2018-06-03T07:34:39.928Z,59.30
2018-06-03T07:37:12.104Z,58.84
2018-06-03T07:52:59.267Z,57.62
2018-06-03T07:55:38.873Z,56.28
2018-06-03T07:58:11.963Z,55.46
2018-06-03T08:00:45.418Z,53.55
2018-06-03T08:03:16.698Z,53.67
2018-06-03T08:05:48.448Z,52.40
2018-06-03T08:08:30.406Z,53.82
2018-06-03T08:11:01.560Z,53.10
2018-06-03T08:13:33.008Z,52.89
2018-06-03T08:16:04.165Z,53.34
2018-06-03T08:18:35.294Z,53.38
2018-06-03T08:21:06.895Z,53.59
2018-06-03T08:23:38.084Z,51.94
2018-06-03T08:26:09.382Z,49.37
2018-06-03T08:28:40.766Z,50.87
2018-06-03T08:31:12.200Z,51.46
2018-06-03T08:33:43.421Z,47.36
2018-06-03T08:36:14.543Z,49.26
2018-06-03T08:38:46.185Z,46.60
2018-06-03T08:41:17.327Z,42.86
2018-06-03T08:43:48.386Z,42.17
2018-06-03T08:46:25.812Z,40.91
2018-06-03T08:48:56.920Z,38.51
2018-06-03T08:51:28.381Z,36.36
2018-06-03T08:54:05.038Z,37.07
2018-06-03T08:56:36.128Z,37.08
2018-06-03T08:59:07.795Z,36.11
2018-06-03T09:01:40.125Z,35.28
2018-06-03T09:04:11.260Z,32.79
2018-06-03T09:06:42.301Z,33.46
2018-06-03T09:09:13.660Z,33.88
2018-06-03T09:11:44.747Z,32.31
2018-06-03T09:14:16.201Z,32.20
2018-06-03T09:16:47.225Z,31.70
2018-06-03T09:19:18.645Z,32.47
2018-06-03T09:21:49.801Z,31.68
2018-06-03T09:24:21.261Z,30.43
2018-06-03T09:26:52.359Z,31.05
2018-06-03T09:29:23.524Z,29.71
2018-06-03T09:31:54.646Z,29.65
2018-06-03T09:34:26.321Z,29.26
2018-06-03T09:36:57.616Z,28.23
2018-06-03T09:39:29.128Z,29.79
2018-06-03T09:42:00.342Z,29.12
2018-06-03T09:44:31.619Z,28.27
2018-06-03T09:47:03.369Z,28.47
2018-06-03T09:49:34.740Z,28.46
2018-06-03T09:52:06.109Z,28.30
2018-06-03T09:54:37.567Z,26.94
2018-06-03T09:57:08.760Z,28.55
2018-06-03T09:59:39.837Z,27.27
2018-06-03T10:02:11.146Z,27.00
2018-06-03T10:04:42.866Z,25.58
2018-06-03T10:07:15.100Z,25.30
2018-06-03T10:09:46.172Z,26.23
2018-06-03T10:12:17.321Z,25.96
2018-06-03T10:14:49.606Z,26.82
2018-06-03T10:17:21.003Z,26.93
2018-06-03T10:19:52.132Z,28.02
2018-06-03T10:22:23.540Z,30.15
2018-06-03T10:24:56.960Z,32.42
2018-06-03T10:27:28.284Z,31.58
2018-06-03T10:29:59.688Z,31.92
2018-06-03T10:32:32.215Z,32.70
2018-06-03T10:35:03.462Z,33.46
2018-06-03T10:37:35.620Z,34.40
2018-06-03T10:40:07.304Z,33.75
2018-06-03T10:42:39.232Z,33.53
2018-06-03T10:45:12.087Z,33.98
2018-06-03T10:47:43.226Z,31.87
2018-06-03T10:50:20.868Z,32.92
2018-06-03T10:52:52.725Z,32.71
2018-06-03T10:55:24.593Z,31.65
2018-06-03T10:57:58.497Z,32.55
2018-06-03T11:00:29.809Z,30.54
2018-06-03T11:03:01.844Z,32.19
2018-06-03T11:05:33.039Z,32.02
2018-06-03T11:08:04.380Z,31.02
2018-06-03T11:10:37.166Z,31.15
2018-06-03T11:13:09.199Z,32.43
2018-06-03T11:15:41.275Z,31.37
2018-06-03T11:18:12.517Z,31.22
2018-06-03T11:20:44.434Z,30.33
2018-06-03T11:23:57.848Z,31.57
2018-06-03T11:26:34.253Z,29.62
2018-06-03T11:29:06.418Z,27.93
2018-06-03T11:31:37.796Z,28.42
2018-06-03T11:34:11.576Z,28.12
2018-06-03T11:36:43.372Z,23.53
2018-06-03T11:39:15.207Z,22.89
2018-06-03T11:41:46.978Z,22.25
2018-06-03T11:44:19.660Z,22.04
2018-06-03T11:46:51.627Z,22.24
2018-06-03T11:49:22.867Z,21.64
2018-06-03T11:51:55.798Z,23.16
2018-06-03T11:54:27.466Z,24.81
2018-06-03T11:57:04.815Z,24.16
2018-06-03T11:59:43.385Z,23.39
2018-06-03T12:02:32.418Z,24.11
2018-06-03T12:08:03.667Z,25.76
2018-06-03T12:10:40.677Z,27.27
2018-06-03T12:13:13.470Z,28.02
2018-06-03T12:15:44.913Z,29.83
2018-06-03T12:18:19.464Z,32.52
2018-06-03T12:20:57.423Z,33.66
2018-06-03T12:23:29.453Z,34.69
2018-06-03T12:26:02.680Z,34.31
2018-06-03T12:28:35.951Z,33.88
2018-06-03T12:31:16.716Z,34.92
2018-06-03T12:34:01.484Z,32.62
2018-06-03T12:40:17.225Z,30.69
2018-06-03T12:43:04.000Z,31.89
2018-06-03T12:45:54.116Z,29.37
2018-06-03T12:48:32.843Z,29.03
2018-06-03T12:51:08.752Z,31.20
2018-06-03T12:53:52.663Z,29.32
2018-06-03T12:56:24.609Z,31.38
2018-06-03T12:58:57.680Z,29.87
2018-06-03T13:01:34.985Z,30.31
2018-06-03T13:04:06.192Z,28.27
2018-06-03T13:06:37.358Z,28.46
2018-06-03T13:09:11.929Z,26.36
2018-06-03T13:11:43.180Z,26.49
2018-06-03T13:14:18.879Z,26.78
2018-06-03T13:16:50.172Z,24.42
2018-06-03T13:19:22.269Z,23.00
2018-06-03T13:21:55.090Z,22.42
2018-06-03T13:24:27.507Z,21.68
2018-06-03T13:27:00.778Z,19.84
2018-06-03T13:29:35.012Z,20.47
2018-06-03T13:32:07.031Z,19.68
2018-06-03T13:34:38.509Z,19.46
2018-06-03T13:37:10.197Z,20.03
2018-06-03T13:40:01.453Z,20.46
2018-06-03T13:42:43.097Z,24.53
2018-06-03T13:45:19.373Z,27.57
2018-06-03T13:47:53.074Z,27.33
2018-06-03T13:50:49.521Z,30.01
2018-06-03T13:53:47.046Z,32.15
2018-06-03T13:56:19.887Z,35.39
2018-06-03T13:58:54.917Z,29.71
2018-06-03T14:01:26.406Z,27.76
2018-06-03T14:09:48.145Z,30.58
2018-06-03T14:12:21.244Z,31.97
2018-06-03T14:14:53.317Z,30.27
2018-06-03T14:18:00.189Z,28.71
2018-06-03T14:20:33.186Z,23.82
2018-06-03T14:23:12.135Z,24.16
2018-06-03T14:25:49.344Z,23.20
2018-06-03T14:28:22.397Z,24.67
2018-06-03T14:30:54.121Z,27.21
2018-06-03T14:33:27.648Z,29.30
2018-06-03T14:36:08.730Z,32.71
2018-06-03T14:38:41.741Z,33.65
2018-06-03T14:53:37.828Z,36.03
2018-06-03T15:18:12.363Z,29.08
2018-06-03T15:22:47.481Z,23.18
2018-06-03T15:25:23.482Z,23.29
2018-06-03T15:33:19.464Z,22.28
2018-06-03T15:36:12.417Z,23.02
2018-06-03T15:38:51.259Z,25.01
2018-06-03T15:44:28.447Z,27.79
2018-06-03T15:47:07.280Z,29.76
2018-06-03T15:55:04.494Z,29.07
2018-06-03T16:00:49.311Z,35.19
2018-06-03T16:03:38.753Z,35.81
2018-06-03T16:07:07.409Z,36.00
2018-06-03T16:09:48.504Z,36.09
2018-06-03T16:12:24.404Z,37.53
2018-06-03T16:15:04.987Z,35.72
2018-06-03T16:17:40.790Z,37.64
2018-06-03T16:20:13.380Z,36.44
2018-06-03T16:22:45.592Z,36.84
2018-06-03T16:25:17.093Z,34.55
2018-06-03T16:27:56.138Z,35.73
2018-06-03T16:30:35.878Z,33.49
2018-06-03T16:33:08.113Z,34.34
2018-06-03T16:35:42.903Z,34.52
2018-06-03T16:38:18.200Z,34.36
2018-06-03T16:40:48.825Z,33.13
2018-06-03T16:43:21.720Z,33.61
2018-06-03T16:46:00.176Z,36.07
2018-06-03T16:48:32.589Z,33.61
2018-06-03T16:51:06.786Z,34.46
2018-06-03T16:53:36.609Z,36.61
2018-06-03T16:56:17.921Z,36.32
2018-06-03T16:58:50.686Z,36.01
2018-06-03T17:01:21.083Z,37.24
2018-06-03T17:06:48.415Z,38.24
2018-06-03T17:09:21.476Z,38.03
2018-06-03T17:11:52.792Z,37.73
2018-06-03T17:20:11.910Z,38.90
2018-06-03T17:23:16.399Z,39.22
2018-06-03T17:25:52.075Z,38.48
2018-06-03T17:31:24.432Z,40.04
2018-06-03T17:33:56.517Z,39.85
2018-06-03T17:39:31.270Z,40.50
2018-06-03T17:42:27.990Z,40.51
2018-06-03T17:45:20.239Z,40.97
2018-06-03T17:47:54.349Z,40.67
2018-06-03T17:50:25.066Z,41.71
2018-06-03T17:52:57.005Z,41.63
2018-06-03T17:55:27.738Z,42.53
2018-06-03T17:57:59.730Z,42.34
2018-06-03T18:00:31.885Z,43.29
2018-06-03T18:03:06.400Z,43.54
2018-06-03T18:05:38.693Z,41.98
2018-06-03T18:08:14.161Z,42.38
2018-06-03T18:11:05.304Z,42.77
2018-06-03T18:13:55.287Z,41.66
2018-06-03T18:27:48.816Z,41.82
2018-06-03T18:41:17.288Z,44.01
2018-06-03T18:43:53.431Z,43.17
2018-06-03T18:46:23.412Z,42.73
2018-06-03T18:52:12.993Z,42.59
2018-06-03T18:55:09.507Z,42.09
2018-06-03T18:57:45.295Z,42.22
2018-06-03T19:00:30.528Z,43.37
2018-06-03T19:03:05.029Z,43.69
2018-06-03T19:05:36.903Z,43.19
2018-06-03T19:08:08.862Z,44.64
2018-06-03T19:10:40.124Z,46.30
2018-06-03T19:13:11.655Z,45.78
2018-06-03T19:15:45.519Z,46.74
2018-06-03T19:18:16.305Z,48.21
2018-06-03T19:20:47.416Z,50.69
2018-06-03T19:23:22.016Z,52.29
2018-06-03T19:28:33.535Z,53.13
2018-06-03T19:31:08.243Z,54.12
2018-06-03T19:33:58.849Z,54.44
2018-06-03T19:36:29.804Z,54.98
2018-06-03T19:39:01.066Z,56.22
2018-06-03T19:44:24.823Z,57.13
2018-06-03T19:46:56.132Z,57.18
2018-06-03T19:49:36.506Z,57.76
2018-06-03T19:52:08.348Z,58.08
2018-06-03T19:54:39.209Z,58.80
2018-06-03T19:57:10.404Z,59.07
2018-06-03T19:59:43.571Z,58.95
2018-06-03T20:02:16.878Z,58.91
2018-06-03T20:04:47.803Z,58.97
2018-06-03T20:07:27.905Z,59.55
2018-06-03T20:12:54.678Z,60.45
2018-06-03T20:15:28.006Z,60.51
2018-06-03T20:35:03.204Z,63.87
2018-06-03T20:37:40.233Z,63.81
2018-06-03T20:40:16.885Z,63.77
2018-06-03T20:43:00.805Z,63.85
2018-06-03T20:45:36.393Z,64.60
2018-06-03T20:48:10.088Z,64.62
2018-06-03T20:51:18.300Z,65.11
2018-06-03T20:54:08.928Z,65.34
2018-06-03T20:56:42.237Z,65.45
2018-06-03T20:59:16.289Z,66.25
2018-06-03T21:01:48.007Z,66.57
2018-06-03T21:04:31.161Z,67.05
2018-06-03T21:07:09.179Z,66.73
2018-06-03T21:17:45.690Z,67.45
2018-06-03T21:59:47.053Z,71.07
2018-06-03T22:02:27.672Z,71.20
2018-06-03T22:05:06.899Z,72.02
2018-06-03T22:11:00.444Z,72.48
2018-06-03T22:13:45.251Z,72.43
2018-06-03T22:16:22.412Z,71.82
2018-06-03T22:18:53.545Z,72.13
2018-06-03T22:21:36.350Z,72.50
2018-06-03T22:24:19.643Z,72.28
2018-06-03T22:42:50.119Z,73.26
2018-06-03T22:45:20.242Z,72.43
2018-06-03T22:47:50.342Z,72.64
2018-06-03T22:50:23.294Z,73.60
2018-06-03T22:52:53.319Z,73.48
2018-06-03T22:55:23.469Z,73.61
2018-06-03T22:57:59.954Z,73.48
2018-06-03T23:03:41.073Z,74.82
2018-06-03T23:06:21.456Z,75.84
2018-06-03T23:08:52.780Z,76.20
2018-06-03T23:11:28.466Z,75.94
2018-06-03T23:13:59.042Z,75.83
2018-06-03T23:16:44.888Z,76.67
2018-06-03T23:19:16.005Z,76.53
2018-06-03T23:21:46.184Z,76.97
2018-06-03T23:24:22.450Z,77.08
2018-06-03T23:31:49.319Z,76.84
2018-06-03T23:34:20.188Z,77.44
2018-06-03T23:36:53.070Z,77.38
2018-06-03T23:39:23.799Z,77.13
2018-06-03T23:42:00.380Z,77.02
2018-06-03T23:44:30.217Z,77.44
2018-06-03T23:47:00.090Z,77.01
2018-06-03T23:49:35.287Z,77.70
2018-06-03T23:52:13.599Z,77.60
2018-06-03T23:54:44.171Z,77.91
2018-06-03T23:57:15.476Z,77.84
2018-06-03T23:59:45.840Z,77.97
